createdAt,value
2018-06-20T00:01:30.334Z,11.77
2018-06-20T00:03:59.673Z,17.60
2018-06-20T00:06:31.794Z,12.40
2018-06-20T00:09:02.692Z,19.53
2018-06-20T00:11:32.538Z,14.97
2018-06-20T00:14:03.065Z,5.53
2018-06-20T00:16:33.052Z,4.93
2018-06-20T00:19:02.775Z,4.77
2018-06-20T00:21:33.119Z,10.93
2018-06-20T00:24:03.164Z,5.80
2018-06-20T00:26:32.960Z,4.30
2018-06-20T00:29:02.235Z,11.40
2018-06-20T00:31:32.028Z,7.50
2018-06-20T00:34:01.766Z,10.57
2018-06-20T00:36:32.022Z,9.77
2018-06-20T00:39:02.995Z,7.70
2018-06-20T00:41:32.429Z,11.20
2018-06-20T00:44:01.939Z,6.77
2018-06-20T00:46:31.939Z,4.83
2018-06-20T00:49:01.777Z,5.90
2018-06-20T00:51:31.307Z,9.57
2018-06-20T00:54:00.471Z,8.67
2018-06-20T00:56:30.579Z,12.57
2018-06-20T00:59:00.085Z,17.63
2018-06-20T01:01:29.599Z,17.90
2018-06-20T01:03:59.288Z,10.43
2018-06-20T01:06:28.901Z,15.70
2018-06-20T01:08:59.665Z,13.17
2018-06-20T01:11:30.234Z,8.13
2018-06-20T01:13:59.830Z,3.93
2018-06-20T01:16:29.386Z,2.43
2018-06-20T01:18:59.685Z,6.13
2018-06-20T01:21:29.166Z,4.17
2018-06-20T01:23:59.325Z,8.27
2018-06-20T01:26:30.704Z,7.47
2018-06-20T01:29:01.143Z,3.33
2018-06-20T01:31:30.616Z,3.03
2018-06-20T01:34:00.860Z,5.03
2018-06-20T01:36:31.030Z,5.10
2018-06-20T01:39:00.357Z,4.20
2018-06-20T01:41:29.847Z,3.83
2018-06-20T01:43:59.363Z,11.77
2018-06-20T01:46:29.648Z,5.70
2018-06-20T01:49:00.535Z,13.70
2018-06-20T01:51:30.133Z,9.63
2018-06-20T01:54:00.427Z,12.83
2018-06-20T01:56:30.918Z,9.27
2018-06-20T01:59:01.144Z,8.93
2018-06-20T02:01:32.186Z,12.23
2018-06-20T02:04:01.715Z,15.17
2018-06-20T02:06:31.177Z,10.80
2018-06-20T02:09:01.225Z,7.17
2018-06-20T02:11:31.953Z,10.33
2018-06-20T02:14:02.888Z,10.20
2018-06-20T02:16:34.126Z,13.83
2018-06-20T02:19:03.750Z,14.00
2018-06-20T02:24:08.409Z,12.60
2018-06-20T02:26:38.645Z,9.10
2018-06-20T02:29:09.791Z,6.37
2018-06-20T02:31:39.398Z,7.13
2018-06-20T02:34:08.659Z,7.90
2018-06-20T02:36:40.821Z,9.33
2018-06-20T02:39:10.615Z,9.73
2018-06-20T02:41:39.915Z,10.50
2018-06-20T02:44:09.764Z,6.50
2018-06-20T02:46:40.223Z,8.43
2018-06-20T02:49:09.804Z,3.30
2018-06-20T02:51:40.363Z,2.63
2018-06-20T02:54:09.871Z,9.30
2018-06-20T02:56:39.378Z,13.10
2018-06-20T02:59:08.876Z,9.17
2018-06-20T03:01:39.258Z,12.90
2018-06-20T03:04:12.524Z,12.70
2018-06-20T03:06:42.826Z,9.33
2018-06-20T03:09:17.419Z,10.73
2018-06-20T03:11:47.043Z,7.10
2018-06-20T03:14:17.042Z,17.03
2018-06-20T03:16:46.870Z,8.13
2018-06-20T03:19:16.876Z,5.30
2018-06-20T03:21:46.258Z,8.10
2018-06-20T03:24:16.563Z,8.40
2018-06-20T03:26:46.607Z,4.23
2018-06-20T03:29:16.461Z,6.13
2018-06-20T03:31:46.545Z,4.50
2018-06-20T03:34:16.091Z,2.80
2018-06-20T03:36:46.216Z,4.33
2018-06-20T03:39:15.770Z,2.53
2018-06-20T03:41:45.438Z,2.97
2018-06-20T03:44:15.132Z,4.60
2018-06-20T03:46:45.358Z,8.27
2018-06-20T03:49:16.461Z,7.37
2018-06-20T03:51:46.739Z,4.20
2018-06-20T03:54:16.277Z,4.67
2018-06-20T03:56:45.923Z,7.60
2018-06-20T03:59:15.869Z,13.17
2018-06-20T04:01:45.325Z,10.53
2018-06-20T04:04:14.969Z,11.10
2018-06-20T04:06:46.489Z,10.87
2018-06-20T04:09:16.931Z,8.13
2018-06-20T04:11:46.574Z,11.97
2018-06-20T04:14:16.079Z,8.80
2018-06-20T04:16:45.660Z,9.03
2018-06-20T04:19:16.664Z,9.37
2018-06-20T04:21:45.971Z,14.47
2018-06-20T04:24:15.249Z,12.10
2018-06-20T04:26:44.708Z,12.10
2018-06-20T04:29:14.129Z,13.43
2018-06-20T04:31:43.763Z,25.60
2018-06-20T04:34:13.197Z,13.27
2018-06-20T04:36:43.294Z,9.70
2018-06-20T04:39:12.801Z,12.43
2018-06-20T04:41:41.962Z,17.20
2018-06-20T04:44:12.846Z,13.13
2018-06-20T04:46:42.433Z,11.63
2018-06-20T04:49:12.030Z,12.43
2018-06-20T04:51:41.640Z,10.70
2018-06-20T04:54:11.810Z,11.60
2018-06-20T04:56:41.286Z,6.93
2018-06-20T04:59:10.880Z,14.33
2018-06-20T05:01:40.284Z,9.73
2018-06-20T05:04:10.356Z,6.43
2018-06-20T05:06:39.787Z,17.57
2018-06-20T05:09:14.481Z,10.57
2018-06-20T05:11:43.642Z,10.83
2018-06-20T05:14:13.208Z,9.73
2018-06-20T05:16:43.501Z,12.90
2018-06-20T05:26:01.917Z,8.90
2018-06-20T05:28:31.353Z,15.17
2018-06-20T05:31:00.856Z,10.57
2018-06-20T05:33:30.280Z,11.40
2018-06-20T05:36:00.283Z,9.53
2018-06-20T05:38:29.873Z,11.97
2018-06-20T05:41:00.029Z,20.37
2018-06-20T05:43:29.838Z,9.90
2018-06-20T05:45:59.376Z,18.17
2018-06-20T05:48:29.585Z,6.13
2018-06-20T05:50:59.088Z,14.20
2018-06-20T05:53:28.776Z,6.90
2018-06-20T05:55:58.306Z,9.33
2018-06-20T05:58:27.761Z,14.90
2018-06-20T06:00:57.317Z,10.50
2018-06-20T06:03:26.785Z,9.40
2018-06-20T06:06:12.908Z,12.07
2018-06-20T06:08:43.691Z,10.93
2018-06-20T06:11:13.384Z,12.37
2018-06-20T06:13:42.853Z,7.33
2018-06-20T06:16:12.306Z,11.80
2018-06-20T06:18:41.617Z,14.00
2018-06-20T06:21:10.987Z,14.57
2018-06-20T06:23:40.412Z,10.90
2018-06-20T06:26:09.606Z,24.07
2018-06-20T06:28:38.890Z,16.20
2018-06-20T06:31:08.389Z,17.13
2018-06-20T06:33:37.873Z,19.30
2018-06-20T06:36:07.694Z,24.53
2018-06-20T06:38:37.212Z,33.17
2018-06-20T06:41:06.851Z,19.87
2018-06-20T06:43:36.333Z,23.07
2018-06-20T06:46:05.781Z,29.07
2018-06-20T06:48:35.241Z,24.13
2018-06-20T06:51:04.724Z,36.83
2018-06-20T06:53:34.337Z,28.80
2018-06-20T06:56:03.837Z,24.90
2018-06-20T06:58:33.060Z,38.20
2018-06-20T07:01:02.929Z,23.50
2018-06-20T07:03:32.601Z,25.47
2018-06-20T07:06:02.100Z,34.50
2018-06-20T07:08:31.620Z,32.43
2018-06-20T07:11:01.157Z,24.80
2018-06-20T07:13:30.781Z,29.30
2018-06-20T07:16:00.361Z,24.30
2018-06-20T07:18:30.381Z,24.60
2018-06-20T07:20:59.644Z,22.10
2018-06-20T07:23:29.151Z,23.47
2018-06-20T07:25:58.760Z,24.60
2018-06-20T07:28:29.299Z,24.40
2018-06-20T07:30:58.760Z,24.60
2018-06-20T07:33:28.292Z,23.10
2018-06-20T07:35:57.758Z,24.17
2018-06-20T07:38:27.496Z,26.13
2018-06-20T07:40:57.960Z,19.37
2018-06-20T07:43:27.573Z,26.30
2018-06-20T07:45:58.241Z,26.30
2018-06-20T07:48:27.769Z,21.23
2018-06-20T07:50:57.290Z,20.00
2018-06-20T07:53:26.805Z,25.10
2018-06-20T07:55:56.294Z,16.40
2018-06-20T07:58:30.803Z,14.30
2018-06-20T08:01:05.450Z,16.63
2018-06-20T08:03:39.874Z,22.77
2018-06-20T08:06:14.646Z,29.20
2018-06-20T08:08:49.357Z,19.23
2018-06-20T08:12:24.244Z,24.57
2018-06-20T08:14:59.503Z,20.70
2018-06-20T08:17:34.121Z,16.83
2018-06-20T08:20:07.929Z,16.93
2018-06-20T08:22:37.453Z,17.10
2018-06-20T08:25:07.659Z,21.97
2018-06-20T08:27:37.408Z,17.17
2018-06-20T08:30:08.281Z,17.77
2018-06-20T08:32:37.552Z,16.80
2018-06-20T08:35:07.044Z,16.80
2018-06-20T08:37:37.561Z,22.73
2018-06-20T08:40:07.201Z,17.70
2018-06-20T08:42:36.821Z,18.63
2018-06-20T08:45:06.074Z,15.80
2018-06-20T08:47:35.670Z,18.40
2018-06-20T08:50:05.484Z,15.33
2018-06-20T08:52:34.989Z,18.63
2018-06-20T08:55:04.542Z,18.80
2018-06-20T08:57:34.038Z,17.47
2018-06-20T09:00:03.520Z,21.07
2018-06-20T09:02:33.128Z,12.73
2018-06-20T09:05:07.862Z,15.77
2018-06-20T09:07:42.652Z,21.70
2018-06-20T09:10:17.817Z,20.20
2018-06-20T09:12:52.880Z,26.07
2018-06-20T09:15:27.643Z,17.40
2018-06-20T09:18:02.471Z,17.40
2018-06-20T09:20:32.141Z,15.47
2018-06-20T09:23:02.495Z,15.60
2018-06-20T09:25:32.085Z,24.53
2018-06-20T09:28:01.617Z,21.17
2018-06-20T09:30:31.044Z,19.83
2018-06-20T09:33:00.198Z,16.17
2018-06-20T09:35:29.729Z,23.90
2018-06-20T09:37:59.388Z,26.00
2018-06-20T09:40:28.945Z,19.07
2018-06-20T09:42:58.421Z,17.40
2018-06-20T09:45:27.875Z,24.60
2018-06-20T09:47:57.093Z,18.90
2018-06-20T09:50:31.836Z,18.50
2018-06-20T09:53:01.373Z,22.90
2018-06-20T09:55:31.405Z,20.27
2018-06-20T09:58:01.021Z,29.73
2018-06-20T10:00:35.795Z,27.10
2018-06-20T10:03:10.707Z,31.50
2018-06-20T10:05:45.159Z,25.63
2018-06-20T10:08:20.053Z,19.83
2018-06-20T10:10:54.629Z,20.33
2018-06-20T10:13:25.591Z,22.00
2018-06-20T10:15:55.077Z,22.60
2018-06-20T10:18:24.986Z,24.43
2018-06-20T10:20:54.517Z,30.30
2018-06-20T10:23:24.211Z,23.50
2018-06-20T10:25:53.743Z,21.40
2018-06-20T10:28:23.227Z,27.33
2018-06-20T10:30:52.850Z,17.93
2018-06-20T10:33:22.300Z,19.37
2018-06-20T10:35:51.937Z,15.20
2018-06-20T10:38:21.342Z,21.87
2018-06-20T10:40:50.890Z,17.10
2018-06-20T10:43:20.420Z,27.47
2018-06-20T10:45:54.884Z,25.77
2018-06-20T10:48:24.859Z,24.67
2018-06-20T10:50:54.008Z,18.27
2018-06-20T10:53:23.474Z,21.47
2018-06-20T10:55:53.024Z,28.10
2018-06-20T10:59:27.854Z,23.43
2018-06-20T11:02:02.568Z,20.80
2018-06-20T11:04:37.578Z,23.73
2018-06-20T11:08:14.310Z,21.27
2018-06-20T11:10:48.924Z,23.17
2018-06-20T11:13:18.453Z,24.30
2018-06-20T11:15:48.187Z,23.03
2018-06-20T11:18:17.812Z,17.43
2018-06-20T11:20:52.533Z,21.03
2018-06-20T11:23:21.854Z,22.70
2018-06-20T11:25:51.302Z,24.53
2018-06-20T11:34:16.719Z,27.67
2018-06-20T11:36:46.201Z,21.13
2018-06-20T11:39:15.781Z,22.00
2018-06-20T11:41:45.234Z,25.60
2018-06-20T11:44:14.670Z,23.40
2018-06-20T11:46:49.288Z,23.90
2018-06-20T11:49:18.821Z,26.33
2018-06-20T11:51:48.276Z,27.30
2018-06-20T11:54:18.027Z,22.00
2018-06-20T11:56:47.456Z,21.90
2018-06-20T11:59:22.583Z,24.87
2018-06-20T12:01:57.701Z,19.57
2018-06-20T12:04:32.321Z,24.30
2018-06-20T12:07:06.815Z,20.00
2018-06-20T12:09:41.696Z,22.13
2018-06-20T12:12:16.428Z,25.97
2018-06-20T12:14:52.320Z,21.53
2018-06-20T12:17:26.784Z,22.40
2018-06-20T12:20:01.584Z,22.23
2018-06-20T12:22:36.335Z,22.63
2018-06-20T12:25:10.946Z,19.40
2018-06-20T12:27:45.928Z,15.83
2018-06-20T12:30:21.481Z,15.67
2018-06-20T12:32:56.179Z,20.60
2018-06-20T12:35:30.796Z,18.53
2018-06-20T12:38:06.002Z,17.97
2018-06-20T12:40:41.105Z,17.13
2018-06-20T12:43:16.362Z,17.70
2018-06-20T12:45:46.241Z,18.20
2018-06-20T12:48:15.737Z,18.90
2018-06-20T12:50:45.164Z,25.40
2018-06-20T12:53:14.610Z,22.47
2018-06-20T12:55:44.046Z,27.30
2018-06-20T12:58:13.486Z,19.50
2018-06-20T13:00:42.909Z,17.90
2018-06-20T13:03:12.421Z,22.07
2018-06-20T13:05:42.787Z,18.90
2018-06-20T13:08:13.157Z,22.40
2018-06-20T13:10:43.249Z,20.73
2018-06-20T13:13:14.042Z,17.07
2018-06-20T13:15:45.948Z,15.07
2018-06-20T13:18:15.945Z,15.67
2018-06-20T13:20:45.829Z,16.60
2018-06-20T13:23:15.690Z,16.23
2018-06-20T13:25:45.227Z,18.20
2018-06-20T13:28:14.684Z,17.00
2018-06-20T13:30:50.046Z,14.80
2018-06-20T13:33:24.668Z,12.73
2018-06-20T13:35:59.361Z,11.90
2018-06-20T13:38:33.929Z,16.20
2018-06-20T13:41:08.634Z,20.17
2018-06-20T13:43:43.077Z,13.50
2018-06-20T13:46:18.429Z,10.83
2018-06-20T13:48:47.941Z,13.73
2018-06-20T13:51:17.474Z,10.20
2018-06-20T13:53:47.060Z,13.17
2018-06-20T13:56:16.562Z,11.20
2018-06-20T13:58:45.964Z,8.00
2018-06-20T14:01:16.475Z,9.70
2018-06-20T14:03:46.121Z,9.13
2018-06-20T14:06:15.738Z,5.30
2018-06-20T14:08:45.826Z,5.70
2018-06-20T14:11:15.984Z,6.10
2018-06-20T14:13:45.518Z,4.67
2018-06-20T14:16:14.866Z,4.80
2018-06-20T14:18:44.352Z,4.90
2018-06-20T14:21:19.109Z,4.53
2018-06-20T14:23:48.856Z,5.33
2018-06-20T14:26:18.140Z,11.53
2018-06-20T14:28:48.211Z,5.43
2018-06-20T14:31:23.050Z,4.60
2018-06-20T14:33:57.710Z,5.17
2018-06-20T14:36:32.377Z,5.00
2018-06-20T14:40:07.868Z,5.90
2018-06-20T14:42:42.891Z,5.60
2018-06-20T14:45:18.033Z,6.67
2018-06-20T14:47:49.233Z,6.47
2018-06-20T14:50:18.853Z,4.80
2018-06-20T14:52:48.142Z,3.97
2018-06-20T14:55:19.525Z,5.80
2018-06-20T14:57:50.491Z,5.93
2018-06-20T15:00:20.439Z,5.50
2018-06-20T15:02:50.440Z,5.90
2018-06-20T15:05:20.872Z,3.83
2018-06-20T15:07:50.988Z,3.93
2018-06-20T15:10:20.391Z,4.63
2018-06-20T15:12:49.977Z,10.67
2018-06-20T15:15:19.514Z,11.70
2018-06-20T15:17:49.399Z,6.23
2018-06-20T15:20:19.027Z,4.10
2018-06-20T15:22:48.965Z,5.33
2018-06-20T15:25:22.508Z,3.40
2018-06-20T15:27:57.197Z,3.33
2018-06-20T15:30:32.366Z,3.40
2018-06-20T15:33:07.613Z,4.20
2018-06-20T15:35:42.402Z,6.27
2018-06-20T15:38:16.745Z,9.20
2018-06-20T15:40:46.498Z,4.40
2018-06-20T15:43:16.249Z,3.60
2018-06-20T15:45:45.730Z,6.30
2018-06-20T15:48:15.209Z,3.87
2018-06-20T15:50:44.884Z,6.57
2018-06-20T15:53:14.582Z,4.90
2018-06-20T15:55:44.270Z,4.73
2018-06-20T15:58:13.768Z,8.70
2018-06-20T16:00:44.234Z,3.70
2018-06-20T16:03:13.794Z,3.13
2018-06-20T16:05:43.295Z,3.77
2018-06-20T16:08:12.821Z,8.97
2018-06-20T16:10:42.668Z,3.50
2018-06-20T16:13:12.240Z,11.60
2018-06-20T16:15:41.792Z,4.60
2018-06-20T16:18:11.484Z,3.97
2018-06-20T16:20:47.218Z,3.83
2018-06-20T16:23:21.927Z,3.50
2018-06-20T16:25:57.465Z,3.60
2018-06-20T16:28:33.279Z,4.27
2018-06-20T16:31:03.415Z,12.63
2018-06-20T16:33:33.317Z,5.30
2018-06-20T16:36:02.778Z,4.83
2018-06-20T16:38:32.317Z,6.37
2018-06-20T16:41:02.208Z,3.07
2018-06-20T16:43:31.755Z,3.70
2018-06-20T16:46:01.210Z,4.33
2018-06-20T16:48:30.729Z,3.17
2018-06-20T16:51:00.132Z,3.37
2018-06-20T16:53:29.606Z,2.97
2018-06-20T16:55:59.141Z,4.80
2018-06-20T16:58:28.710Z,2.90
2018-06-20T17:01:03.302Z,3.77
2018-06-20T17:03:32.825Z,10.87
2018-06-20T17:06:02.331Z,8.10
2018-06-20T17:08:31.921Z,4.33
2018-06-20T17:11:01.381Z,3.40
2018-06-20T17:13:36.034Z,3.30
2018-06-20T17:16:10.788Z,2.63
2018-06-20T17:18:45.584Z,3.90
2018-06-20T17:21:20.285Z,4.33
2018-06-20T17:23:54.627Z,3.80
2018-06-20T17:26:24.308Z,3.13
2018-06-20T17:28:53.689Z,6.30
2018-06-20T17:31:23.084Z,5.60
2018-06-20T17:33:52.789Z,3.60
2018-06-20T17:36:22.273Z,4.97
2018-06-20T17:38:51.833Z,8.13
2018-06-20T17:41:21.370Z,3.40
2018-06-20T17:43:51.056Z,5.33
2018-06-20T17:46:20.299Z,3.97
2018-06-20T17:48:49.677Z,4.23
2018-06-20T17:51:19.439Z,3.73
2018-06-20T17:53:48.877Z,3.10
2018-06-20T17:56:18.022Z,4.63
2018-06-20T17:58:47.534Z,15.23
2018-06-20T18:01:17.191Z,3.80
2018-06-20T18:03:46.616Z,5.73
2018-06-20T18:06:21.309Z,4.40
2018-06-20T18:08:56.093Z,2.90
2018-06-20T18:11:30.936Z,7.50
2018-06-20T18:14:05.543Z,10.53
2018-06-20T18:16:40.767Z,9.53
2018-06-20T18:19:10.270Z,13.83
2018-06-20T18:21:40.326Z,15.90
2018-06-20T18:24:10.036Z,26.50
2018-06-20T18:26:39.610Z,19.73
2018-06-20T18:29:09.069Z,19.47
2018-06-20T18:31:38.677Z,25.67
2018-06-20T18:34:08.668Z,26.40
2018-06-20T18:36:38.241Z,21.40
2018-06-20T18:39:09.706Z,31.57
2018-06-20T18:41:39.290Z,32.53
2018-06-20T18:44:09.645Z,29.50
2018-06-20T18:46:39.901Z,28.10
2018-06-20T18:49:10.462Z,35.60
2018-06-20T18:51:39.917Z,38.17
2018-06-20T18:54:09.454Z,44.10
2018-06-20T18:56:39.587Z,40.90
2018-06-20T18:59:14.789Z,44.37
2018-06-20T19:01:49.782Z,50.27
2018-06-20T19:04:24.443Z,44.63
2018-06-20T19:06:59.570Z,39.50
2018-06-20T19:09:29.122Z,39.63
2018-06-20T19:11:58.751Z,35.83
2018-06-20T19:14:28.528Z,50.73
2018-06-20T19:16:58.419Z,38.00
2018-06-20T19:19:28.106Z,51.77
2018-06-20T19:21:58.415Z,45.60
2018-06-20T19:24:27.881Z,43.30
2018-06-20T19:26:57.370Z,42.53
2018-06-20T19:29:26.914Z,37.70
2018-06-20T19:31:56.925Z,42.67
2018-06-20T19:34:26.433Z,38.97
2018-06-20T19:36:55.909Z,40.27
2018-06-20T19:39:30.731Z,41.80
2018-06-20T19:42:00.220Z,42.60
2018-06-20T19:44:34.822Z,49.80
2018-06-20T19:47:05.839Z,49.07
2018-06-20T19:49:36.146Z,47.90
2018-06-20T19:52:06.412Z,47.07
2018-06-20T19:54:36.014Z,52.37
2018-06-20T19:57:05.572Z,46.53
2018-06-20T19:59:35.147Z,48.20
2018-06-20T20:02:04.651Z,46.93
2018-06-20T20:04:34.319Z,50.73
2018-06-20T20:07:03.786Z,47.70
2018-06-20T20:09:33.091Z,52.00
2018-06-20T20:12:02.784Z,54.47
2018-06-20T20:14:32.612Z,51.90
2018-06-20T20:17:02.271Z,57.20
2018-06-20T20:19:32.041Z,42.53
2018-06-20T20:22:01.333Z,58.10
2018-06-20T20:24:30.643Z,50.17
2018-06-20T20:26:59.874Z,52.20
2018-06-20T20:29:29.849Z,51.80
2018-06-20T20:31:59.407Z,57.53
2018-06-20T20:34:29.130Z,44.70
2018-06-20T20:36:58.600Z,53.83
2018-06-20T20:39:28.133Z,47.00
2018-06-20T20:41:58.441Z,59.50
2018-06-20T20:44:27.970Z,48.77
2018-06-20T20:46:57.484Z,43.17
2018-06-20T20:49:27.104Z,47.07
2018-06-20T20:51:57.465Z,55.70
2018-06-20T20:54:27.479Z,49.87
2018-06-20T20:56:57.030Z,40.47
2018-06-20T20:59:28.399Z,43.40
2018-06-20T21:01:57.901Z,36.50
2018-06-20T21:04:28.053Z,48.50
2018-06-20T21:06:57.624Z,41.50
2018-06-20T21:09:27.512Z,46.23
2018-06-20T21:11:57.714Z,46.73
2018-06-20T21:14:28.520Z,46.70
2018-06-20T21:16:58.715Z,39.17
2018-06-20T21:19:29.291Z,44.57
2018-06-20T21:21:58.901Z,37.07
2018-06-20T21:24:28.922Z,44.47
2018-06-20T21:26:58.836Z,43.60
2018-06-20T21:29:28.999Z,42.67
2018-06-20T21:31:58.534Z,41.97
2018-06-20T21:34:29.050Z,46.87
2018-06-20T21:36:59.962Z,45.73
2018-06-20T21:39:29.596Z,48.37
2018-06-20T21:41:59.170Z,51.63
2018-06-20T21:44:29.057Z,35.33
2018-06-20T21:46:58.766Z,55.37
2018-06-20T21:49:29.246Z,41.43
2018-06-20T21:51:58.786Z,43.77
2018-06-20T21:54:28.850Z,37.50
2018-06-20T21:56:58.499Z,49.73
2018-06-20T21:59:29.258Z,33.17
2018-06-20T22:01:58.671Z,44.83
2018-06-20T22:04:28.137Z,35.30
2018-06-20T22:06:57.651Z,52.53
2018-06-20T22:09:27.582Z,51.37
2018-06-20T22:11:57.578Z,38.07
2018-06-20T22:14:27.223Z,58.03
2018-06-20T22:16:57.317Z,46.50
2018-06-20T22:19:27.458Z,50.20
2018-06-20T22:21:57.584Z,37.30
2018-06-20T22:24:27.276Z,39.90
2018-06-20T22:26:57.085Z,39.60
2018-06-20T22:29:26.686Z,36.27
2018-06-20T22:31:57.146Z,37.57
2018-06-20T22:34:26.546Z,48.70
2018-06-20T22:36:56.029Z,37.23
2018-06-20T22:39:25.759Z,44.33
2018-06-20T22:41:55.273Z,34.67
2018-06-20T22:44:24.982Z,39.03
2018-06-20T22:46:55.014Z,46.87
2018-06-20T22:49:24.638Z,42.23
2018-06-20T22:51:54.117Z,45.63
2018-06-20T22:54:23.667Z,39.60
2018-06-20T22:56:53.341Z,54.23
2018-06-20T22:59:22.914Z,44.57
2018-06-20T23:01:52.454Z,43.87
2018-06-20T23:04:21.918Z,50.80
2018-06-20T23:06:51.879Z,43.63
2018-06-20T23:09:21.953Z,39.20
2018-06-20T23:11:51.458Z,53.17
2018-06-20T23:14:20.981Z,51.20
2018-06-20T23:16:50.412Z,52.40
2018-06-20T23:19:19.988Z,37.23
2018-06-20T23:21:49.628Z,41.27
2018-06-20T23:24:19.044Z,52.13
2018-06-20T23:26:48.494Z,48.23
2018-06-20T23:29:18.130Z,60.37
2018-06-20T23:31:47.641Z,63.47
2018-06-20T23:34:17.323Z,48.80
2018-06-20T23:36:46.840Z,59.30
2018-06-20T23:39:16.784Z,56.53
2018-06-20T23:41:46.997Z,54.23
2018-06-20T23:44:16.618Z,55.67
2018-06-20T23:46:46.104Z,49.30
2018-06-20T23:49:15.675Z,53.70
2018-06-20T23:51:46.062Z,49.07
2018-06-20T23:54:15.544Z,53.60
2018-06-20T23:56:44.976Z,51.27
2018-06-20T23:59:14.451Z,49.23
